sensor_id;sensor_type;location;lat;lon;timestamp;pressure;altitude;pressure_sealevel;temperature;humidity
62025;BME280;47978;49.118;12.146;2023-04-06T00:01:58;97787.56;;;-1.72;74.59
62025;BME280;47978;49.118;12.146;2023-04-06T00:06:00;97790.13;;;-1.77;74.94
62025;BME280;47978;49.118;12.146;2023-04-06T00:10:03;97792.50;;;-1.87;75.17
62025;BME280;47978;49.118;12.146;2023-04-06T00:14:05;97798.34;;;-1.90;75.30
62025;BME280;47978;49.118;12.146;2023-04-06T00:18:06;97800.25;;;-1.97;75.34
62025;BME280;47978;49.118;12.146;2023-04-06T00:22:08;97795.09;;;-2.06;75.79
62025;BME280;47978;49.118;12.146;2023-04-06T00:26:10;97791.38;;;-2.05;75.97
62025;BME280;47978;49.118;12.146;2023-04-06T00:30:12;97794.91;;;-2.11;75.93
62025;BME280;47978;49.118;12.146;2023-04-06T00:34:13;97802.72;;;-2.21;76.17
62025;BME280;47978;49.118;12.146;2023-04-06T00:38:15;97796.84;;;-2.18;75.80
62025;BME280;47978;49.118;12.146;2023-04-06T00:42:17;97784.97;;;-2.17;76.00
62025;BME280;47978;49.118;12.146;2023-04-06T00:46:19;97785.63;;;-2.21;75.78
62025;BME280;47978;49.118;12.146;2023-04-06T00:50:21;97786.31;;;-2.33;76.42
62025;BME280;47978;49.118;12.146;2023-04-06T00:54:22;97787.78;;;-2.37;76.61
62025;BME280;47978;49.118;12.146;2023-04-06T00:58:25;97783.59;;;-2.33;76.41
62025;BME280;47978;49.118;12.146;2023-04-06T01:02:26;97783.66;;;-2.46;76.75
62025;BME280;47978;49.118;12.146;2023-04-06T01:06:28;97782.97;;;-2.35;76.47
62025;BME280;47978;49.118;12.146;2023-04-06T01:10:29;97782.78;;;-2.40;76.63
62025;BME280;47978;49.118;12.146;2023-04-06T01:14:32;97784.53;;;-2.52;76.90
62025;BME280;47978;49.118;12.146;2023-04-06T01:18:33;97778.28;;;-2.53;77.09
62025;BME280;47978;49.118;12.146;2023-04-06T01:22:36;97768.50;;;-2.54;77.28
62025;BME280;47978;49.118;12.146;2023-04-06T01:26:38;97771.19;;;-2.54;77.31
62025;BME280;47978;49.118;12.146;2023-04-06T01:30:39;97775.59;;;-2.59;77.50
62025;BME280;47978;49.118;12.146;2023-04-06T01:34:41;97778.31;;;-2.59;77.38
62025;BME280;47978;49.118;12.146;2023-04-06T01:38:44;97768.53;;;-2.60;77.62
62025;BME280;47978;49.118;12.146;2023-04-06T01:42:45;97776.06;;;-2.69;77.10
62025;BME280;47978;49.118;12.146;2023-04-06T01:46:46;97779.59;;;-2.68;77.54
62025;BME280;47978;49.118;12.146;2023-04-06T01:50:48;97781.66;;;-2.64;77.10
62025;BME280;47978;49.118;12.146;2023-04-06T01:54:51;97784.56;;;-2.59;76.93
62025;BME280;47978;49.118;12.146;2023-04-06T01:58:52;97772.69;;;-2.58;76.94
62025;BME280;47978;49.118;12.146;2023-04-06T02:02:54;97771.63;;;-2.50;76.75
62025;BME280;47978;49.118;12.146;2023-04-06T02:06:55;97773.91;;;-2.54;77.37
62025;BME280;47978;49.118;12.146;2023-04-06T02:10:58;97767.84;;;-2.49;76.96
62025;BME280;47978;49.118;12.146;2023-04-06T02:14:59;97773.28;;;-2.49;77.29
62025;BME280;47978;49.118;12.146;2023-04-06T02:19:01;97767.22;;;-2.44;77.60
62025;BME280;47978;49.118;12.146;2023-04-06T02:23:02;97761.91;;;-2.26;77.52
62025;BME280;47978;49.118;12.146;2023-04-06T02:27:05;97753.59;;;-2.31;77.92
62025;BME280;47978;49.118;12.146;2023-04-06T02:31:06;97763.16;;;-2.29;77.86
62025;BME280;47978;49.118;12.146;2023-04-06T02:35:08;97759.13;;;-2.19;77.69
62025;BME280;47978;49.118;12.146;2023-04-06T02:39:09;97758.09;;;-2.18;78.10
62025;BME280;47978;49.118;12.146;2023-04-06T02:43:12;97754.69;;;-2.07;77.44
62025;BME280;47978;49.118;12.146;2023-04-06T02:47:14;97749.03;;;-2.06;77.65
62025;BME280;47978;49.118;12.146;2023-04-06T02:51:15;97758.06;;;-2.12;78.05
62025;BME280;47978;49.118;12.146;2023-04-06T02:55:16;97748.28;;;-2.13;77.93
62025;BME280;47978;49.118;12.146;2023-04-06T02:59:20;97748.66;;;-2.09;77.55
62025;BME280;47978;49.118;12.146;2023-04-06T03:03:22;97754.09;;;-2.09;77.89
62025;BME280;47978;49.118;12.146;2023-04-06T03:07:23;97746.13;;;-2.04;77.55
62025;BME280;47978;49.118;12.146;2023-04-06T03:11:25;97754.59;;;-1.94;77.37
62025;BME280;47978;49.118;12.146;2023-04-06T03:15:28;97755.13;;;-1.78;77.76
62025;BME280;47978;49.118;12.146;2023-04-06T03:19:29;97750.34;;;-1.83;78.02
62025;BME280;47978;49.118;12.146;2023-04-06T03:23:30;97749.59;;;-1.97;78.46
62025;BME280;47978;49.118;12.146;2023-04-06T03:27:32;97744.53;;;-1.87;78.09
62025;BME280;47978;49.118;12.146;2023-04-06T03:31:35;97751.22;;;-1.89;78.08
62025;BME280;47978;49.118;12.146;2023-04-06T03:35:36;97756.03;;;-1.91;77.35
62025;BME280;47978;49.118;12.146;2023-04-06T03:39:38;97757.09;;;-1.92;77.87
62025;BME280;47978;49.118;12.146;2023-04-06T03:43:39;97762.50;;;-1.92;78.26
62025;BME280;47978;49.118;12.146;2023-04-06T03:47:42;97765.56;;;-1.82;78.10
62025;BME280;47978;49.118;12.146;2023-04-06T03:51:43;97766.94;;;-1.73;77.29
62025;BME280;47978;49.118;12.146;2023-04-06T03:55:45;97774.13;;;-1.85;76.73
62025;BME280;47978;49.118;12.146;2023-04-06T03:59:46;97785.50;;;-2.01;77.61
62025;BME280;47978;49.118;12.146;2023-04-06T04:03:49;97789.50;;;-2.11;77.90
62025;BME280;47978;49.118;12.146;2023-04-06T04:07:52;97792.06;;;-2.16;77.79
62025;BME280;47978;49.118;12.146;2023-04-06T04:11:53;97797.81;;;-2.06;78.12
62025;BME280;47978;49.118;12.146;2023-04-06T04:15:54;97797.44;;;-2.09;78.19
62025;BME280;47978;49.118;12.146;2023-04-06T04:19:57;97796.41;;;-2.15;78.13
62025;BME280;47978;49.118;12.146;2023-04-06T04:23:59;97797.22;;;-2.08;77.94
62025;BME280;47978;49.118;12.146;2023-04-06T04:28:00;97802.28;;;-2.18;78.41
62025;BME280;47978;49.118;12.146;2023-04-06T04:32:01;97798.47;;;-2.10;77.78
62025;BME280;47978;49.118;12.146;2023-04-06T04:36:04;97802.28;;;-2.18;78.62
62025;BME280;47978;49.118;12.146;2023-04-06T04:40:06;97801.59;;;-2.07;78.14
62025;BME280;47978;49.118;12.146;2023-04-06T04:44:08;97798.78;;;-1.93;78.39
62025;BME280;47978;49.118;12.146;2023-04-06T04:48:09;97801.50;;;-1.93;78.05
62025;BME280;47978;49.118;12.146;2023-04-06T04:52:12;97797.28;;;-1.89;78.09
62025;BME280;47978;49.118;12.146;2023-04-06T04:56:13;97802.91;;;-1.84;77.89
62025;BME280;47978;49.118;12.146;2023-04-06T05:00:15;97796.94;;;-1.68;77.73
62025;BME280;47978;49.118;12.146;2023-04-06T05:04:16;97805.00;;;-1.86;78.26
62025;BME280;47978;49.118;12.146;2023-04-06T05:08:19;97801.41;;;-1.80;77.51
62025;BME280;47978;49.118;12.146;2023-04-06T05:12:20;97802.47;;;-1.81;77.70
62025;BME280;47978;49.118;12.146;2023-04-06T05:16:22;97801.19;;;-1.78;77.87
62025;BME280;47978;49.118;12.146;2023-04-06T05:20:23;97803.63;;;-1.70;77.63
62025;BME280;47978;49.118;12.146;2023-04-06T05:24:27;97801.16;;;-1.47;77.50
62025;BME280;47978;49.118;12.146;2023-04-06T05:28:28;97812.09;;;-1.35;77.20
62025;BME280;47978;49.118;12.146;2023-04-06T05:32:30;97813.75;;;-1.34;77.18
62025;BME280;47978;49.118;12.146;2023-04-06T05:36:31;97807.75;;;-1.36;76.80
62025;BME280;47978;49.118;12.146;2023-04-06T05:40:34;97811.19;;;-1.04;75.48
62025;BME280;47978;49.118;12.146;2023-04-06T05:44:36;97814.72;;;-1.03;75.40
62025;BME280;47978;49.118;12.146;2023-04-06T05:48:38;97807.09;;;-1.13;75.58
62025;BME280;47978;49.118;12.146;2023-04-06T05:52:39;97807.28;;;-1.08;75.42
62025;BME280;47978;49.118;12.146;2023-04-06T05:56:42;97810.06;;;-0.78;74.90
62025;BME280;47978;49.118;12.146;2023-04-06T06:00:43;97812.16;;;-0.43;74.08
62025;BME280;47978;49.118;12.146;2023-04-06T06:04:44;97816.47;;;-0.17;73.20
62025;BME280;47978;49.118;12.146;2023-04-06T06:08:46;97810.09;;;0.19;72.09
62025;BME280;47978;49.118;12.146;2023-04-06T06:12:49;97806.13;;;0.45;72.10
62025;BME280;47978;49.118;12.146;2023-04-06T06:16:50;97811.81;;;1.50;68.53
62025;BME280;47978;49.118;12.146;2023-04-06T06:20:51;97798.91;;;2.43;65.08
62025;BME280;47978;49.118;12.146;2023-04-06T06:24:53;97801.19;;;3.19;62.08
62025;BME280;47978;49.118;12.146;2023-04-06T06:28:55;97806.81;;;3.29;61.28
62025;BME280;47978;49.118;12.146;2023-04-06T06:32:57;97806.63;;;2.97;61.63
62025;BME280;47978;49.118;12.146;2023-04-06T06:36:58;97812.09;;;2.97;62.89
62025;BME280;47978;49.118;12.146;2023-04-06T06:41:00;97811.31;;;2.67;63.38
62025;BME280;47978;49.118;12.146;2023-04-06T06:45:03;97812.59;;;2.60;63.40
62025;BME280;47978;49.118;12.146;2023-04-06T06:49:04;97811.50;;;2.61;63.94
62025;BME280;47978;49.118;12.146;2023-04-06T06:53:06;97814.00;;;2.96;63.53
62025;BME280;47978;49.118;12.146;2023-04-06T06:57:07;97818.44;;;3.19;62.67
62025;BME280;47978;49.118;12.146;2023-04-06T07:01:10;97816.94;;;3.28;62.06
62025;BME280;47978;49.118;12.146;2023-04-06T07:05:11;97825.22;;;3.55;61.54
62025;BME280;47978;49.118;12.146;2023-04-06T07:09:28;97822.00;;;3.80;60.83
62025;BME280;47978;49.118;12.146;2023-04-06T07:13:29;97822.31;;;4.06;60.05
62025;BME280;47978;49.118;12.146;2023-04-06T07:17:32;97820.69;;;4.32;58.97
62025;BME280;47978;49.118;12.146;2023-04-06T07:21:33;97819.75;;;4.48;57.80
62025;BME280;47978;49.118;12.146;2023-04-06T07:25:35;97818.31;;;4.68;57.18
62025;BME280;47978;49.118;12.146;2023-04-06T07:29:36;97816.19;;;4.48;57.50
62025;BME280;47978;49.118;12.146;2023-04-06T07:33:39;97825.81;;;4.83;57.92
62025;BME280;47978;49.118;12.146;2023-04-06T07:37:40;97820.69;;;5.24;56.43
62025;BME280;47978;49.118;12.146;2023-04-06T07:41:42;97826.06;;;5.13;55.76
62025;BME280;47978;49.118;12.146;2023-04-06T07:45:43;97821.97;;;4.84;56.74
62025;BME280;47978;49.118;12.146;2023-04-06T07:49:46;97824.53;;;5.28;56.32
62025;BME280;47978;49.118;12.146;2023-04-06T07:53:47;97821.63;;;5.92;54.79
62025;BME280;47978;49.118;12.146;2023-04-06T07:57:48;97818.75;;;6.40;52.20
62025;BME280;47978;49.118;12.146;2023-04-06T08:01:50;97813.06;;;6.72;51.49
62025;BME280;47978;49.118;12.146;2023-04-06T08:05:53;97810.03;;;6.99;50.92
62025;BME280;47978;49.118;12.146;2023-04-06T08:09:54;97814.97;;;7.28;49.67
62025;BME280;47978;49.118;12.146;2023-04-06T08:13:56;97813.84;;;7.34;50.43
62025;BME280;47978;49.118;12.146;2023-04-06T08:17:57;97807.28;;;7.30;49.58
62025;BME280;47978;49.118;12.146;2023-04-06T08:22:00;97807.53;;;7.28;47.95
62025;BME280;47978;49.118;12.146;2023-04-06T08:26:01;97810.31;;;7.23;48.65
62025;BME280;47978;49.118;12.146;2023-04-06T08:30:03;97807.28;;;7.35;47.76
62025;BME280;47978;49.118;12.146;2023-04-06T08:34:04;97809.69;;;7.62;47.95
62025;BME280;47978;49.118;12.146;2023-04-06T08:38:07;97809.84;;;7.91;47.24
62025;BME280;47978;49.118;12.146;2023-04-06T08:42:10;97804.16;;;7.77;44.83
62025;BME280;47978;49.118;12.146;2023-04-06T08:46:13;97806.59;;;7.84;42.15
62025;BME280;47978;49.118;12.146;2023-04-06T08:50:15;97804.91;;;7.93;45.00
62025;BME280;47978;49.118;12.146;2023-04-06T08:54:19;97797.03;;;7.66;40.31
62025;BME280;47978;49.118;12.146;2023-04-06T08:58:20;97807.09;;;7.96;45.30
62025;BME280;47978;49.118;12.146;2023-04-06T09:02:38;97805.53;;;7.80;41.09
62025;BME280;47978;49.118;12.146;2023-04-06T09:06:40;97805.44;;;8.00;40.55
62025;BME280;47978;49.118;12.146;2023-04-06T09:10:42;97796.72;;;8.32;42.98
62025;BME280;47978;49.118;12.146;2023-04-06T09:14:44;97800.53;;;8.47;39.03
62025;BME280;47978;49.118;12.146;2023-04-06T09:18:45;97800.03;;;8.34;41.51
62025;BME280;47978;49.118;12.146;2023-04-06T09:22:47;97794.97;;;8.57;41.75
62025;BME280;47978;49.118;12.146;2023-04-06T09:26:50;97798.91;;;8.46;40.67
62025;BME280;47978;49.118;12.146;2023-04-06T09:30:51;97798.03;;;8.50;41.73
62025;BME280;47978;49.118;12.146;2023-04-06T09:34:52;97789.41;;;8.62;39.43
62025;BME280;47978;49.118;12.146;2023-04-06T09:38:54;97788.19;;;8.78;40.43
62025;BME280;47978;49.118;12.146;2023-04-06T09:42:57;97774.91;;;8.86;40.85
62025;BME280;47978;49.118;12.146;2023-04-06T09:47:00;97775.34;;;8.98;40.21
62025;BME280;47978;49.118;12.146;2023-04-06T09:51:06;97773.22;;;9.19;38.26
62025;BME280;47978;49.118;12.146;2023-04-06T09:55:08;97768.78;;;9.52;37.41
62025;BME280;47978;49.118;12.146;2023-04-06T09:59:12;97767.28;;;9.36;35.89
62025;BME280;47978;49.118;12.146;2023-04-06T10:03:14;97764.81;;;9.34;36.76
62025;BME280;47978;49.118;12.146;2023-04-06T10:07:21;97769.84;;;9.56;36.45
62025;BME280;47978;49.118;12.146;2023-04-06T10:11:23;97763.16;;;9.62;36.48
62025;BME280;47978;49.118;12.146;2023-04-06T10:15:25;97755.84;;;9.72;38.54
62025;BME280;47978;49.118;12.146;2023-04-06T10:19:32;97758.78;;;9.80;36.81
62025;BME280;47978;49.118;12.146;2023-04-06T10:23:35;97758.63;;;9.72;35.25
62025;BME280;47978;49.118;12.146;2023-04-06T10:27:37;97755.41;;;9.35;36.07
62025;BME280;47978;49.118;12.146;2023-04-06T10:31:42;97749.50;;;9.47;35.86
62025;BME280;47978;49.118;12.146;2023-04-06T10:35:43;97747.41;;;9.63;36.11
62025;BME280;47978;49.118;12.146;2023-04-06T10:39:45;97753.38;;;9.70;37.32
62025;BME280;47978;49.118;12.146;2023-04-06T10:43:54;97756.31;;;9.79;35.17
62025;BME280;47978;49.118;12.146;2023-04-06T10:47:57;97739.75;;;9.55;33.90
62025;BME280;47978;49.118;12.146;2023-04-06T10:51:58;97747.47;;;9.82;36.44
62025;BME280;47978;49.118;12.146;2023-04-06T10:56:00;97743.78;;;9.86;34.58
62025;BME280;47978;49.118;12.146;2023-04-06T11:00:03;97742.63;;;9.68;34.73
62025;BME280;47978;49.118;12.146;2023-04-06T11:04:06;97745.97;;;9.41;35.50
62025;BME280;47978;49.118;12.146;2023-04-06T11:08:07;97747.22;;;9.54;35.65
62025;BME280;47978;49.118;12.146;2023-04-06T11:12:09;97741.47;;;9.75;36.11
62025;BME280;47978;49.118;12.146;2023-04-06T11:16:21;97732.34;;;9.74;36.84
62025;BME280;47978;49.118;12.146;2023-04-06T11:20:24;97735.47;;;9.67;35.73
62025;BME280;47978;49.118;12.146;2023-04-06T11:24:26;97723.34;;;9.87;36.02
62025;BME280;47978;49.118;12.146;2023-04-06T11:28:27;97707.09;;;10.05;35.85
62025;BME280;47978;49.118;12.146;2023-04-06T11:32:28;97709.00;;;10.28;34.79
62025;BME280;47978;49.118;12.146;2023-04-06T11:36:31;97701.13;;;10.17;35.79
62025;BME280;47978;49.118;12.146;2023-04-06T11:40:33;97692.78;;;10.22;34.59
62025;BME280;47978;49.118;12.146;2023-04-06T11:44:34;97693.66;;;10.17;34.90
62025;BME280;47978;49.118;12.146;2023-04-06T11:48:43;97692.53;;;10.18;35.13
62025;BME280;47978;49.118;12.146;2023-04-06T11:52:46;97691.13;;;10.21;35.87
62025;BME280;47978;49.118;12.146;2023-04-06T11:56:59;97678.56;;;9.90;37.54
62025;BME280;47978;49.118;12.146;2023-04-06T12:01:03;97676.69;;;10.24;37.69
62025;BME280;47978;49.118;12.146;2023-04-06T12:05:05;97661.28;;;10.42;35.76
62025;BME280;47978;49.118;12.146;2023-04-06T12:09:08;97668.13;;;10.77;36.26
62025;BME280;47978;49.118;12.146;2023-04-06T12:13:10;97655.34;;;10.81;35.82
62025;BME280;47978;49.118;12.146;2023-04-06T12:17:11;97656.09;;;10.54;34.38
62025;BME280;47978;49.118;12.146;2023-04-06T12:21:12;97646.53;;;10.79;34.52
62025;BME280;47978;49.118;12.146;2023-04-06T12:25:15;97647.53;;;11.16;34.47
62025;BME280;47978;49.118;12.146;2023-04-06T12:29:17;97643.72;;;11.25;34.60
62025;BME280;47978;49.118;12.146;2023-04-06T12:33:18;97647.53;;;11.16;33.70
62025;BME280;47978;49.118;12.146;2023-04-06T12:37:20;97643.63;;;11.44;35.16
62025;BME280;47978;49.118;12.146;2023-04-06T12:41:23;97642.69;;;11.49;32.29
62025;BME280;47978;49.118;12.146;2023-04-06T12:45:24;97640.88;;;11.44;31.91
62025;BME280;47978;49.118;12.146;2023-04-06T12:49:25;97639.72;;;11.32;32.07
62025;BME280;47978;49.118;12.146;2023-04-06T12:53:27;97641.25;;;11.10;35.03
62025;BME280;47978;49.118;12.146;2023-04-06T12:57:30;97634.03;;;10.95;33.99
62025;BME280;47978;49.118;12.146;2023-04-06T13:01:31;97634.91;;;10.96;34.60
62025;BME280;47978;49.118;12.146;2023-04-06T13:05:33;97631.09;;;11.06;32.76
62025;BME280;47978;49.118;12.146;2023-04-06T13:09:34;97626.59;;;10.96;31.73
62025;BME280;47978;49.118;12.146;2023-04-06T13:13:37;97620.94;;;10.87;32.75
62025;BME280;47978;49.118;12.146;2023-04-06T13:17:39;97617.09;;;10.69;32.02
62025;BME280;47978;49.118;12.146;2023-04-06T13:21:40;97612.81;;;10.77;33.38
62025;BME280;47978;49.118;12.146;2023-04-06T13:25:41;97609.78;;;11.06;32.82
62025;BME280;47978;49.118;12.146;2023-04-06T13:29:44;97612.13;;;11.26;32.17
62025;BME280;47978;49.118;12.146;2023-04-06T13:33:45;97607.22;;;11.37;31.61
62025;BME280;47978;49.118;12.146;2023-04-06T13:37:47;97597.47;;;11.26;32.76
62025;BME280;47978;49.118;12.146;2023-04-06T13:41:48;97588.16;;;11.22;33.96
62025;BME280;47978;49.118;12.146;2023-04-06T13:45:52;97589.91;;;11.32;33.58
62025;BME280;47978;49.118;12.146;2023-04-06T13:49:54;97584.69;;;11.30;33.44
62025;BME280;47978;49.118;12.146;2023-04-06T13:53:55;97585.06;;;11.37;33.71
62025;BME280;47978;49.118;12.146;2023-04-06T13:57:56;97584.06;;;11.33;33.43
62025;BME280;47978;49.118;12.146;2023-04-06T14:01:59;97588.34;;;11.53;33.13
62025;BME280;47978;49.118;12.146;2023-04-06T14:06:01;97574.97;;;11.69;33.33
62025;BME280;47978;49.118;12.146;2023-04-06T14:10:16;97570.22;;;11.33;31.54
62025;BME280;47978;49.118;12.146;2023-04-06T14:14:17;97570.69;;;11.49;33.22
62025;BME280;47978;49.118;12.146;2023-04-06T14:18:20;97569.78;;;11.54;32.37
62025;BME280;47978;49.118;12.146;2023-04-06T14:22:22;97568.63;;;11.55;31.67
62025;BME280;47978;49.118;12.146;2023-04-06T14:26:23;97562.06;;;11.64;32.50
62025;BME280;47978;49.118;12.146;2023-04-06T14:30:27;97563.84;;;11.83;32.60
62025;BME280;47978;49.118;12.146;2023-04-06T14:34:29;97559.66;;;11.85;31.32
62025;BME280;47978;49.118;12.146;2023-04-06T14:38:31;97560.19;;;11.87;31.15
62025;BME280;47978;49.118;12.146;2023-04-06T14:42:32;97559.56;;;11.90;31.37
62025;BME280;47978;49.118;12.146;2023-04-06T14:46:34;97555.34;;;11.79;31.95
62025;BME280;47978;49.118;12.146;2023-04-06T14:50:36;97554.25;;;11.66;32.07
62025;BME280;47978;49.118;12.146;2023-04-06T14:54:38;97545.94;;;11.66;33.85
62025;BME280;47978;49.118;12.146;2023-04-06T14:58:39;97540.41;;;11.66;33.08
62025;BME280;47978;49.118;12.146;2023-04-06T15:02:41;97544.00;;;11.67;32.29
62025;BME280;47978;49.118;12.146;2023-04-06T15:06:44;97547.59;;;11.67;32.30
62025;BME280;47978;49.118;12.146;2023-04-06T15:10:45;97540.66;;;11.42;32.08
62025;BME280;47978;49.118;12.146;2023-04-06T15:14:46;97534.06;;;11.52;32.21
62025;BME280;47978;49.118;12.146;2023-04-06T15:18:48;97543.72;;;11.55;32.18
62025;BME280;47978;49.118;12.146;2023-04-06T15:22:50;97532.72;;;11.63;32.09
62025;BME280;47978;49.118;12.146;2023-04-06T15:26:52;97526.34;;;11.63;32.25
62025;BME280;47978;49.118;12.146;2023-04-06T15:30:53;97534.94;;;11.75;32.36
62025;BME280;47978;49.118;12.146;2023-04-06T15:34:55;97531.47;;;11.69;32.07
62025;BME280;47978;49.118;12.146;2023-04-06T15:38:58;97535.25;;;11.74;31.46
62025;BME280;47978;49.118;12.146;2023-04-06T15:43:00;97534.38;;;11.64;32.17
62025;BME280;47978;49.118;12.146;2023-04-06T15:47:01;97530.84;;;11.73;31.95
62025;BME280;47978;49.118;12.146;2023-04-06T15:51:02;97537.69;;;11.75;32.14
62025;BME280;47978;49.118;12.146;2023-04-06T15:55:06;97532.66;;;11.91;32.20
62025;BME280;47978;49.118;12.146;2023-04-06T15:59:08;97533.38;;;11.83;31.18
62025;BME280;47978;49.118;12.146;2023-04-06T16:03:09;97531.09;;;11.62;31.34
62025;BME280;47978;49.118;12.146;2023-04-06T16:07:11;97529.63;;;11.65;31.69
62025;BME280;47978;49.118;12.146;2023-04-06T16:11:14;97526.13;;;11.73;32.10
62025;BME280;47978;49.118;12.146;2023-04-06T16:15:15;97526.75;;;11.70;31.90
62025;BME280;47978;49.118;12.146;2023-04-06T16:19:17;97525.09;;;11.69;31.99
62025;BME280;47978;49.118;12.146;2023-04-06T16:23:18;97529.53;;;11.70;31.56
62025;BME280;47978;49.118;12.146;2023-04-06T16:27:21;97533.03;;;11.62;31.87
62025;BME280;47978;49.118;12.146;2023-04-06T16:31:23;97522.69;;;11.54;31.73
62025;BME280;47978;49.118;12.146;2023-04-06T16:35:24;97522.69;;;11.54;31.83
62025;BME280;47978;49.118;12.146;2023-04-06T16:39:26;97522.44;;;11.41;32.18
62025;BME280;47978;49.118;12.146;2023-04-06T16:43:29;97521.91;;;11.39;32.76
62025;BME280;47978;49.118;12.146;2023-04-06T16:47:30;97519.25;;;11.34;32.13
62025;BME280;47978;49.118;12.146;2023-04-06T16:51:31;97532.72;;;11.27;32.63
62025;BME280;47978;49.118;12.146;2023-04-06T16:55:33;97521.22;;;11.20;38.25
62025;BME280;47978;49.118;12.146;2023-04-06T16:59:36;97531.19;;;11.07;40.16
62025;BME280;47978;49.118;12.146;2023-04-06T17:03:37;97533.63;;;10.81;41.49
62025;BME280;47978;49.118;12.146;2023-04-06T17:07:39;97528.69;;;10.64;42.86
62025;BME280;47978;49.118;12.146;2023-04-06T17:11:40;97535.09;;;10.32;43.48
62025;BME280;47978;49.118;12.146;2023-04-06T17:15:48;97526.41;;;10.39;43.93
62025;BME280;47978;49.118;12.146;2023-04-06T17:19:50;97531.59;;;10.07;44.58
62025;BME280;47978;49.118;12.146;2023-04-06T17:23:51;97542.56;;;9.61;45.89
62025;BME280;47978;49.118;12.146;2023-04-06T17:27:53;97543.66;;;9.22;46.02
62025;BME280;47978;49.118;12.146;2023-04-06T17:31:56;97539.22;;;8.78;47.71
62025;BME280;47978;49.118;12.146;2023-04-06T17:35:58;97548.31;;;8.25;48.67
62025;BME280;47978;49.118;12.146;2023-04-06T17:39:59;97542.66;;;7.77;49.73
62025;BME280;47978;49.118;12.146;2023-04-06T17:44:01;97548.69;;;7.40;50.86
62025;BME280;47978;49.118;12.146;2023-04-06T17:48:03;97547.47;;;7.02;52.03
62025;BME280;47978;49.118;12.146;2023-04-06T17:52:05;97556.69;;;6.66;52.80
62025;BME280;47978;49.118;12.146;2023-04-06T17:56:07;97560.31;;;6.46;53.77
62025;BME280;47978;49.118;12.146;2023-04-06T18:00:08;97562.50;;;6.34;53.57
62025;BME280;47978;49.118;12.146;2023-04-06T18:04:11;97560.34;;;6.11;54.56
62025;BME280;47978;49.118;12.146;2023-04-06T18:08:13;97564.44;;;5.82;54.61
62025;BME280;47978;49.118;12.146;2023-04-06T18:12:14;97569.91;;;5.62;55.58
62025;BME280;47978;49.118;12.146;2023-04-06T18:16:15;97569.59;;;5.48;55.89
62025;BME280;47978;49.118;12.146;2023-04-06T18:20:18;97576.38;;;5.15;57.17
62025;BME280;47978;49.118;12.146;2023-04-06T18:24:20;97583.72;;;4.99;57.29
62025;BME280;47978;49.118;12.146;2023-04-06T18:28:41;97582.81;;;4.83;58.78
62025;BME280;47978;49.118;12.146;2023-04-06T18:32:43;97586.81;;;4.60;59.12
62025;BME280;47978;49.118;12.146;2023-04-06T18:36:45;97592.78;;;4.52;58.91
62025;BME280;47978;49.118;12.146;2023-04-06T18:40:47;97589.69;;;4.38;59.57
62025;BME280;47978;49.118;12.146;2023-04-06T18:44:48;97591.41;;;4.12;60.44
62025;BME280;47978;49.118;12.146;2023-04-06T18:48:50;97595.97;;;3.96;61.36
62025;BME280;47978;49.118;12.146;2023-04-06T18:52:52;97592.56;;;3.84;62.05
62025;BME280;47978;49.118;12.146;2023-04-06T18:56:54;97599.53;;;3.70;61.56
62025;BME280;47978;49.118;12.146;2023-04-06T19:00:55;97598.69;;;3.37;63.47
62025;BME280;47978;49.118;12.146;2023-04-06T19:04:57;97602.91;;;3.23;64.15
62025;BME280;47978;49.118;12.146;2023-04-06T19:09:00;97606.97;;;3.20;64.43
62025;BME280;47978;49.118;12.146;2023-04-06T19:13:01;97601.25;;;3.00;64.89
62025;BME280;47978;49.118;12.146;2023-04-06T19:17:03;97603.94;;;2.95;64.50
62025;BME280;47978;49.118;12.146;2023-04-06T19:21:10;97615.72;;;2.78;65.54
62025;BME280;47978;49.118;12.146;2023-04-06T19:25:15;97614.44;;;2.64;65.95
62025;BME280;47978;49.118;12.146;2023-04-06T19:29:16;97615.09;;;2.71;65.56
62025;BME280;47978;49.118;12.146;2023-04-06T19:33:18;97608.25;;;2.68;65.24
62025;BME280;47978;49.118;12.146;2023-04-06T19:37:19;97608.19;;;2.46;66.43
62025;BME280;47978;49.118;12.146;2023-04-06T19:41:22;97608.81;;;2.32;67.60
62025;BME280;47978;49.118;12.146;2023-04-06T19:45:24;97613.69;;;2.13;68.93
62025;BME280;47978;49.118;12.146;2023-04-06T19:49:25;97614.91;;;2.22;68.23
62025;BME280;47978;49.118;12.146;2023-04-06T19:53:26;97608.66;;;2.21;68.19
62025;BME280;47978;49.118;12.146;2023-04-06T19:57:29;97614.28;;;1.98;69.74
62025;BME280;47978;49.118;12.146;2023-04-06T20:01:31;97609.31;;;1.95;69.41
62025;BME280;47978;49.118;12.146;2023-04-06T20:05:32;97615.50;;;1.73;70.14
62025;BME280;47978;49.118;12.146;2023-04-06T20:09:33;97613.03;;;1.72;70.08
62025;BME280;47978;49.118;12.146;2023-04-06T20:13:36;97615.34;;;1.80;70.29
62025;BME280;47978;49.118;12.146;2023-04-06T20:17:38;97620.44;;;1.76;70.11
62025;BME280;47978;49.118;12.146;2023-04-06T20:21:39;97618.47;;;1.72;70.44
62025;BME280;47978;49.118;12.146;2023-04-06T20:25:41;97619.38;;;1.61;71.01
62025;BME280;47978;49.118;12.146;2023-04-06T20:29:43;97612.47;;;1.41;71.64
62025;BME280;47978;49.118;12.146;2023-04-06T20:33:45;97614.00;;;1.49;71.19
62025;BME280;47978;49.118;12.146;2023-04-06T20:37:46;97619.91;;;1.29;71.92
62025;BME280;47978;49.118;12.146;2023-04-06T20:41:47;97614.81;;;1.21;72.46
62025;BME280;47978;49.118;12.146;2023-04-06T20:45:50;97616.25;;;1.23;72.30
62025;BME280;47978;49.118;12.146;2023-04-06T20:49:51;97613.34;;;1.01;73.67
62025;BME280;47978;49.118;12.146;2023-04-06T20:53:53;97614.53;;;1.05;73.31
62025;BME280;47978;49.118;12.146;2023-04-06T20:57:55;97612.03;;;1.04;73.26
62025;BME280;47978;49.118;12.146;2023-04-06T21:01:57;97599.94;;;0.83;74.10
62025;BME280;47978;49.118;12.146;2023-04-06T21:05:59;97603.31;;;0.90;73.74
62025;BME280;47978;49.118;12.146;2023-04-06T21:10:00;97604.25;;;0.96;73.43
62025;BME280;47978;49.118;12.146;2023-04-06T21:14:02;97592.75;;;1.05;73.77